Heron Lake, MN

6:10 AM CDT on November 01, 2014 (GMT -0500)
Windom Municipal | Change Station
CLOSE
Current Station
Airport
Location: Windom,
Elevation: 1411 ft
Nearby Weather Stations
Active Advisory: Special Statement Active Notice: Record Report

Elev 1411 ft 43.91 °N, 95.11 °W | Updated 37 minutes ago

Clear
Clear
27 °F
Feels Like 19 °F
N
7
Wind Variable Wind from SSE

Today
High -- | Low -- °F
--% Chance of Precip.
Yesterday
High -- | Low -- °F
Precip. -- in
7:57 AM 6:11 PM
Waxing Gibbous, 65% visible
Pressure 30.38 in
Visibility 10.0 miles
Clouds Clear
Windchill 19 °F
Dew Point 19 °F
Humidity 74%
Rainfall 0.00 in
Snow Depth Not available.
UV 0 out of 12
Pollen .10 out of 12
Air Quality Not available.
Flu Activity Not available.
METAR KMWM 011033Z AUTO 16006KT 10SM CLR M03/M07 A3038 RMK AO2

More Conditions Fewer Conditions

Pressure 30.38 in
Visibility 10.0 miles
Clouds Clear
Windchill 19 °F
Dew Point 19 °F
Humidity 74%
Rainfall 0.00 in
Snow Depth Not available.
UV 0 out of 12
Pollen .10 out of 12
Air Quality Not available.
Flu Activity Not available.
METAR KMWM 011033Z AUTO 16006KT 10SM CLR M03/M07 A3038 RMK AO2

More Conditions Fewer Conditions

10-Day Weather Forecast

Almanac

Astronomy

Nov. 01, 2014 Rise Set
Actual Time
Civil Twilight
Nautical Twilight
Astronomical Twilight
Moon
Length of Visible Light
Length of Day
Tomorrow will be .
, % of the Moon is Illuminated

Today's Extremes

State Highs State Lows

Community

WunderPhotos

Upload Photos

1,766,878 photos uploaded!

WunderBlogs® & News

Nearby

Air Quality

  Air Quality AQ Index Pollutant
Not available.

Snow Depth

Station Depth Elevation

Earthquake Activity

City Distance Mag. Time & Date
Minimum magnitude displayed is 2.5.

Coastal Water Temperatures

Place Temperature

Nearby Weather Stations